createdAt,value
2017-09-17T00:00:21.950Z,91.07
2017-09-17T00:01:22.160Z,91.27
2017-09-17T00:02:21.839Z,91.27
2017-09-17T00:03:22.149Z,91.17
2017-09-17T00:04:22.141Z,90.98
2017-09-17T00:05:21.821Z,90.98
2017-09-17T00:06:21.815Z,91.07
2017-09-17T00:07:21.810Z,90.88
2017-09-17T00:08:22.124Z,91.27
2017-09-17T00:09:21.801Z,91.55
2017-09-17T00:10:22.111Z,91.27
2017-09-17T00:11:21.787Z,91.46
2017-09-17T00:12:21.782Z,91.36
2017-09-17T00:13:22.088Z,91.55
2017-09-17T00:14:22.184Z,91.36
2017-09-17T00:15:22.078Z,91.36
2017-09-17T00:16:22.183Z,91.27
2017-09-17T00:17:22.169Z,91.55
2017-09-17T00:18:21.850Z,91.46
2017-09-17T00:19:21.741Z,91.27
2017-09-17T00:20:22.051Z,90.98
2017-09-17T00:21:22.046Z,91.17
2017-09-17T00:22:21.826Z,91.46
2017-09-17T00:23:21.719Z,91.27
2017-09-17T00:24:22.028Z,91.46
2017-09-17T00:25:21.707Z,91.27
2017-09-17T00:26:21.702Z,91.46
2017-09-17T00:27:21.695Z,91.27
2017-09-17T00:28:22.008Z,90.98
2017-09-17T00:29:22.000Z,90.98
2017-09-17T00:30:21.990Z,91.27
2017-09-17T00:31:21.987Z,91.07
2017-09-17T00:32:22.182Z,91.17
2017-09-17T00:33:21.976Z,91.07
2017-09-17T00:34:21.657Z,90.98
2017-09-17T00:35:21.965Z,91.17
2017-09-17T00:36:21.958Z,91.17
2017-09-17T00:37:21.737Z,90.98
2017-09-17T00:38:21.734Z,90.98
2017-09-17T00:39:21.941Z,91.46
2017-09-17T00:40:21.936Z,91.41
2017-09-17T00:41:21.616Z,90.64
2017-09-17T00:42:21.931Z,90.45
2017-09-17T00:43:21.605Z,91.13
2017-09-17T00:44:22.009Z,91.41
2017-09-17T00:45:21.691Z,91.41
2017-09-17T00:46:21.905Z,91.22
2017-09-17T00:47:21.586Z,91.5
2017-09-17T00:48:21.576Z,91.41
2017-09-17T00:49:21.880Z,90.93
2017-09-17T00:50:21.564Z,90.93
2017-09-17T00:51:21.968Z,91.22
2017-09-17T00:52:21.554Z,91.98
2017-09-17T00:53:21.648Z,92.08
2017-09-17T00:54:21.857Z,92.08
2017-09-17T00:55:21.536Z,92.03
2017-09-17T00:56:21.845Z,92.5
2017-09-17T00:57:21.526Z,92.22
2017-09-17T00:58:21.830Z,92.41
2017-09-17T00:59:21.825Z,92.69
2017-09-17T01:00:21.821Z,92.98
2017-09-17T01:01:21.814Z,92.89
2017-09-17T01:02:21.497Z,93.08
2017-09-17T01:03:21.802Z,92.89
2017-09-17T01:04:21.504Z,93.08
2017-09-17T01:05:21.794Z,93.22
2017-09-17T01:06:21.625Z,92.74
2017-09-17T01:07:21.668Z,92.93
2017-09-17T01:08:21.464Z,93.03
2017-09-17T01:09:21.769Z,93.12
2017-09-17T01:10:21.763Z,92.55
2017-09-17T01:11:21.906Z,92.08
2017-09-17T01:12:21.902Z,92.36
2017-09-17T01:13:21.432Z,92.55
2017-09-17T01:14:21.737Z,92.55
2017-09-17T01:15:21.418Z,92.08
2017-09-17T01:16:21.726Z,91.98
2017-09-17T01:17:21.720Z,92.17
2017-09-17T01:18:21.503Z,92.17
2017-09-17T01:19:21.398Z,92.17
2017-09-17T01:20:21.712Z,91.98
2017-09-17T01:21:21.385Z,91.98
2017-09-17T01:22:21.695Z,91.79
2017-09-17T01:23:21.688Z,92.55
2017-09-17T01:24:21.684Z,92.55
2017-09-17T01:25:21.364Z,92.46
2017-09-17T01:26:21.359Z,92.36
2017-09-17T01:27:21.351Z,92.46
2017-09-17T01:28:21.670Z,92.46
2017-09-17T01:29:21.652Z,92.46
2017-09-17T01:30:21.644Z,92.36
2017-09-17T01:31:21.742Z,92.55
2017-09-17T01:32:21.321Z,92.55
2017-09-17T01:33:21.339Z,92.55
2017-09-17T01:34:21.311Z,92.55
2017-09-17T01:35:21.304Z,92.55
2017-09-17T01:36:21.298Z,92.55
2017-09-17T01:37:21.294Z,92.55
2017-09-17T01:38:21.600Z,92.74
2017-09-17T01:39:21.596Z,92.55
2017-09-17T01:40:21.593Z,92.55
2017-09-17T01:41:21.582Z,92.74
2017-09-17T01:42:21.263Z,92.27
2017-09-17T01:43:21.573Z,92.55
2017-09-17T01:44:21.563Z,92.36
2017-09-17T01:45:21.560Z,92.55
2017-09-17T01:46:21.706Z,92.46
2017-09-17T01:47:21.233Z,92.74
2017-09-17T01:48:21.542Z,91.79
2017-09-17T01:49:21.536Z,91.88
2017-09-17T01:50:21.532Z,92.03
2017-09-17T01:51:21.311Z,92.17
2017-09-17T01:52:21.519Z,92.6
2017-09-17T01:53:21.514Z,92.55
2017-09-17T01:54:21.193Z,92.5
2017-09-17T01:55:21.189Z,92.32
2017-09-17T01:56:21.496Z,92.32
2017-09-17T01:57:21.489Z,92.13
2017-09-17T01:58:21.484Z,92.5
2017-09-17T01:59:21.583Z,92.69
2017-09-17T02:00:21.159Z,92.13
2017-09-17T02:01:21.475Z,91.84
2017-09-17T02:02:21.460Z,92.5
2017-09-17T02:03:21.241Z,92.5
2017-09-17T02:04:21.450Z,92.69
2017-09-17T02:05:21.445Z,92.5
2017-09-17T02:06:21.125Z,92.5
2017-09-17T02:07:21.433Z,92.32
2017-09-17T02:08:21.422Z,92.55
2017-09-17T02:09:21.205Z,92.08
2017-09-17T02:10:21.415Z,91.98
2017-09-17T02:11:21.117Z,92.03
2017-09-17T02:12:21.400Z,92.13
2017-09-17T02:13:21.398Z,91.74
2017-09-17T02:14:21.075Z,91.74
2017-09-17T02:15:21.386Z,92.41
2017-09-17T02:16:21.379Z,92.5
2017-09-17T02:17:21.373Z,92.32
2017-09-17T02:18:21.365Z,92.32
2017-09-17T02:19:21.358Z,92.5
2017-09-17T02:20:21.354Z,92.5
2017-09-17T02:21:21.036Z,92.69
2017-09-17T02:22:21.342Z,92.6
2017-09-17T02:23:21.336Z,91.94
2017-09-17T02:24:21.020Z,91.84
2017-09-17T02:25:21.324Z,92.03
2017-09-17T02:26:21.319Z,91.94
2017-09-17T02:27:20.999Z,92.13
2017-09-17T02:28:21.306Z,92.13
2017-09-17T02:29:20.991Z,92.13
2017-09-17T02:30:20.983Z,91.94
2017-09-17T02:31:21.002Z,92.03
2017-09-17T02:32:21.072Z,91.94
2017-09-17T02:33:20.964Z,92.03
2017-09-17T02:34:21.059Z,91.27
2017-09-17T02:35:20.952Z,91.46
2017-09-17T02:36:20.947Z,91.74
2017-09-17T02:37:20.939Z,92.13
2017-09-17T02:38:20.934Z,92.13
2017-09-17T02:39:20.929Z,92.13
2017-09-17T02:40:20.924Z,91.94
2017-09-17T02:41:21.231Z,92.5
2017-09-17T02:42:21.222Z,92.5
2017-09-17T02:43:21.228Z,92.41
2017-09-17T02:44:20.900Z,92.32
2017-09-17T02:45:20.895Z,92.5
2017-09-17T02:46:21.202Z,92.32
2017-09-17T02:47:21.192Z,92.32
2017-09-17T02:48:21.189Z,92.32
2017-09-17T02:49:21.191Z,92.5
2017-09-17T02:50:20.963Z,92.5
2017-09-17T02:51:21.195Z,91.84
2017-09-17T02:52:21.164Z,92.03
2017-09-17T02:53:21.159Z,91.94
2017-09-17T02:54:20.843Z,92.13
2017-09-17T02:55:20.938Z,92.03
2017-09-17T02:56:21.143Z,91.94
2017-09-17T02:57:21.136Z,92.03
2017-09-17T02:58:21.131Z,91.84
2017-09-17T02:59:20.812Z,91.84
2017-09-17T03:00:21.119Z,92.13
2017-09-17T03:01:21.116Z,91.84
2017-09-17T03:02:21.210Z,91.84
2017-09-17T03:03:20.787Z,92.03
2017-09-17T03:04:20.780Z,92.13
2017-09-17T03:05:21.090Z,92.13
2017-09-17T03:06:21.085Z,92.03
2017-09-17T03:07:20.765Z,91.94
2017-09-17T03:08:21.069Z,91.94
2017-09-17T03:09:21.168Z,91.94
2017-09-17T03:10:20.747Z,92.03
2017-09-17T03:11:20.749Z,91.84
2017-09-17T03:12:20.733Z,92.13
2017-09-17T03:13:20.728Z,92.03
2017-09-17T03:14:20.722Z,92.03
2017-09-17T03:15:20.717Z,91.94
2017-09-17T03:16:21.022Z,92.03
2017-09-17T03:17:21.023Z,91.46
2017-09-17T03:18:20.701Z,91.36
2017-09-17T03:19:20.793Z,91.17
2017-09-17T03:20:20.784Z,90.98
2017-09-17T03:21:20.782Z,92.03
2017-09-17T03:22:20.991Z,92.32
2017-09-17T03:23:20.671Z,91.7
2017-09-17T03:24:21.075Z,92.03
2017-09-17T03:25:20.656Z,91.84
2017-09-17T03:26:20.653Z,92.03
2017-09-17T03:27:20.745Z,92.03
2017-09-17T03:28:20.638Z,91.84
2017-09-17T03:29:20.634Z,91.94
2017-09-17T03:30:20.627Z,91.74
2017-09-17T03:31:20.624Z,91.84
2017-09-17T03:32:20.765Z,91.46
2017-09-17T03:33:20.925Z,92.13
2017-09-17T03:34:20.602Z,91.74
2017-09-17T03:35:20.599Z,91.84
2017-09-17T03:36:20.592Z,91.74
2017-09-17T03:37:20.905Z,91.84
2017-09-17T03:38:20.891Z,91.74
2017-09-17T03:39:20.571Z,91.79
2017-09-17T03:40:20.567Z,92.08
2017-09-17T03:41:20.875Z,91.55
2017-09-17T03:42:20.554Z,91.31
2017-09-17T03:43:20.864Z,91.22
2017-09-17T03:44:20.543Z,91.13
2017-09-17T03:45:20.949Z,91.22
2017-09-17T03:46:20.844Z,90.94
2017-09-17T03:47:20.841Z,91.89
2017-09-17T03:48:20.831Z,90.94
2017-09-17T03:49:20.611Z,91.41
2017-09-17T03:50:20.823Z,91.22
2017-09-17T03:51:20.822Z,91.03
2017-09-17T03:52:20.493Z,91.03
2017-09-17T03:53:20.799Z,91.94
2017-09-17T03:54:20.805Z,91.75
2017-09-17T03:55:20.477Z,92.03
2017-09-17T03:56:20.472Z,92.22
2017-09-17T03:57:20.462Z,92.6
2017-09-17T03:58:20.460Z,93.18
2017-09-17T03:59:20.866Z,92.79
2017-09-17T04:00:20.763Z,92.7
2017-09-17T04:01:20.439Z,92.79
2017-09-17T04:02:20.851Z,93.18
2017-09-17T04:03:20.741Z,93.46
2017-09-17T04:04:20.421Z,93.65
2017-09-17T04:05:20.729Z,93.84
2017-09-17T04:06:20.723Z,93.84
2017-09-17T04:07:20.404Z,93.55
2017-09-17T04:08:20.398Z,93.08
2017-09-17T04:09:20.393Z,92.99
2017-09-17T04:10:20.385Z,93.84
2017-09-17T04:11:20.693Z,94.32
2017-09-17T04:12:20.686Z,94.13
2017-09-17T04:13:20.370Z,94.22
2017-09-17T04:14:20.463Z,95.08
2017-09-17T04:15:20.355Z,94.51
2017-09-17T04:16:20.661Z,94.13
2017-09-17T04:17:20.768Z,94.13
2017-09-17T04:18:20.649Z,94.89
2017-09-17T04:19:20.332Z,94.79
2017-09-17T04:20:20.738Z,94.6
2017-09-17T04:21:20.320Z,94.51
2017-09-17T04:22:20.625Z,94.79
2017-09-17T04:23:20.618Z,94.6
2017-09-17T04:24:20.303Z,95.36
2017-09-17T04:25:20.609Z,95.27
2017-09-17T04:26:20.601Z,94.98
2017-09-17T04:27:20.285Z,94.7
2017-09-17T04:28:20.377Z,95.46
2017-09-17T04:29:20.373Z,94.51
2017-09-17T04:30:20.580Z,94.89
2017-09-17T04:31:20.575Z,94.89
2017-09-17T04:32:20.568Z,94.89
2017-09-17T04:33:20.249Z,94.32
2017-09-17T04:34:20.241Z,94.03
2017-09-17T04:35:20.338Z,93.94
2017-09-17T04:36:20.541Z,94.93
2017-09-17T04:37:20.534Z,94.74
2017-09-17T04:38:20.530Z,94.74
2017-09-17T04:39:20.212Z,94.89
2017-09-17T04:40:20.517Z,95.08
2017-09-17T04:41:20.197Z,94.89
2017-09-17T04:42:20.506Z,94.51
2017-09-17T04:43:20.187Z,94.6
2017-09-17T04:44:20.496Z,94.51
2017-09-17T04:45:20.485Z,95.46
2017-09-17T04:46:20.169Z,95.56
2017-09-17T04:47:20.475Z,95.08
2017-09-17T04:48:20.468Z,95.46
2017-09-17T04:49:20.462Z,94.79
2017-09-17T04:50:20.143Z,95.27
2017-09-17T04:51:20.448Z,95.46
2017-09-17T04:52:20.451Z,95.27
2017-09-17T04:53:20.439Z,95.08
2017-09-17T04:54:20.431Z,95.08
2017-09-17T04:55:20.112Z,95.27
2017-09-17T04:56:20.424Z,94.93
2017-09-17T04:57:20.102Z,95.12
2017-09-17T04:58:20.096Z,94.84
2017-09-17T04:59:20.088Z,94.93
2017-09-17T05:00:20.395Z,94.27
2017-09-17T05:01:20.080Z,94.27
2017-09-17T05:02:20.170Z,94.22
2017-09-17T05:03:20.066Z,94.51
2017-09-17T05:04:20.159Z,94.42
2017-09-17T05:05:20.369Z,94.27
2017-09-17T05:06:20.046Z,94.27
2017-09-17T05:07:20.355Z,94.08
2017-09-17T05:08:20.033Z,94.27
2017-09-17T05:09:20.344Z,93.79
2017-09-17T05:10:20.345Z,93.79
2017-09-17T05:11:20.014Z,94.27
2017-09-17T05:12:20.008Z,94.27
2017-09-17T05:13:20.317Z,93.6
2017-09-17T05:14:20.319Z,93.79
2017-09-17T05:15:20.302Z,94.37
2017-09-17T05:16:20.301Z,94.42
2017-09-17T05:17:20.292Z,94.7
2017-09-17T05:18:19.973Z,94.17
2017-09-17T05:19:19.970Z,94.32
2017-09-17T05:20:20.273Z,93.7
2017-09-17T05:21:19.954Z,93.84
2017-09-17T05:22:20.258Z,93.89
2017-09-17T05:23:20.255Z,93.79
2017-09-17T05:24:20.254Z,94.08
2017-09-17T05:25:20.242Z,93.65
2017-09-17T05:26:19.924Z,93.7
2017-09-17T05:27:20.333Z,94.17
2017-09-17T05:28:20.225Z,93.94
2017-09-17T05:29:20.219Z,93.65
2017-09-17T05:30:20.312Z,93.08
2017-09-17T05:31:19.992Z,93.55
2017-09-17T05:32:19.884Z,94.13
2017-09-17T05:33:19.880Z,93.65
2017-09-17T05:34:19.876Z,93.84
2017-09-17T05:35:20.189Z,93.84
2017-09-17T05:36:19.963Z,93.65
2017-09-17T05:37:20.202Z,93.94
2017-09-17T05:38:19.952Z,94.22
2017-09-17T05:39:19.844Z,94.13
2017-09-17T05:40:20.151Z,94.13
2017-09-17T05:41:20.141Z,94.32
2017-09-17T05:42:20.137Z,94.13
2017-09-17T05:43:19.820Z,94.13
2017-09-17T05:44:19.913Z,94.42
2017-09-17T05:45:19.808Z,94.22
2017-09-17T05:46:20.111Z,94.03
2017-09-17T05:47:20.113Z,93.74
2017-09-17T05:48:20.102Z,93.94
2017-09-17T05:49:19.781Z,94.27
2017-09-17T05:50:20.091Z,94.22
2017-09-17T05:51:19.868Z,94.08
2017-09-17T05:52:19.764Z,94.17
2017-09-17T05:53:20.172Z,94.08
2017-09-17T05:54:19.753Z,94.17
2017-09-17T05:55:19.746Z,94.37
2017-09-17T05:56:20.050Z,94.46
2017-09-17T05:57:19.732Z,94.46
2017-09-17T05:58:19.727Z,93.79
2017-09-17T05:59:19.822Z,94.17
2017-09-17T06:00:20.029Z,94.17
2017-09-17T06:01:20.020Z,93.98
2017-09-17T06:02:20.017Z,94.08
2017-09-17T06:03:20.103Z,94.08
2017-09-17T06:04:20.001Z,94.17
2017-09-17T06:05:19.995Z,94.17
2017-09-17T06:06:19.990Z,94.08
2017-09-17T06:07:19.771Z,94.27
2017-09-17T06:08:19.662Z,93.89
2017-09-17T06:09:19.969Z,94.17
2017-09-17T06:10:19.756Z,94.27
2017-09-17T06:11:19.962Z,93.79
2017-09-17T06:12:19.640Z,94.08
2017-09-17T06:13:19.943Z,94.08
2017-09-17T06:14:20.039Z,93.89
2017-09-17T06:15:19.618Z,94.17
2017-09-17T06:16:19.928Z,94.17
2017-09-17T06:17:19.919Z,94.27
2017-09-17T06:18:19.917Z,93.79
2017-09-17T06:19:19.910Z,94.37
2017-09-17T06:20:19.902Z,94.46
2017-09-17T06:21:19.897Z,94.46
2017-09-17T06:22:19.887Z,94.56
2017-09-17T06:23:19.670Z,94.46
2017-09-17T06:24:19.881Z,94.27
2017-09-17T06:25:19.871Z,94.08
2017-09-17T06:26:19.552Z,94.27
2017-09-17T06:27:19.545Z,93.79
2017-09-17T06:28:19.540Z,94.08
2017-09-17T06:29:19.845Z,93.89
2017-09-17T06:30:19.945Z,93.98
2017-09-17T06:31:19.834Z,93.79
2017-09-17T06:32:19.519Z,93.79
2017-09-17T06:33:19.919Z,93.89
2017-09-17T06:34:19.816Z,94.65
2017-09-17T06:35:19.814Z,94.13
2017-09-17T06:36:19.490Z,94.32
2017-09-17T06:37:19.798Z,94.6
2017-09-17T06:38:19.891Z,94.41
2017-09-17T06:39:19.471Z,94.41
2017-09-17T06:40:19.468Z,94.51
2017-09-17T06:41:19.458Z,94.51
2017-09-17T06:42:19.767Z,94.32
2017-09-17T06:43:19.756Z,93.84
2017-09-17T06:44:19.442Z,94.03
2017-09-17T06:45:19.435Z,94.03
2017-09-17T06:46:19.741Z,93.93
2017-09-17T06:47:19.423Z,94.03
2017-09-17T06:48:19.415Z,94.22
2017-09-17T06:49:19.745Z,94.41
2017-09-17T06:50:19.715Z,94.13
2017-09-17T06:51:19.398Z,94.32
2017-09-17T06:52:19.708Z,94.32
2017-09-17T06:53:19.700Z,94.41
2017-09-17T06:54:19.477Z,94.32
2017-09-17T06:55:19.375Z,94.32
2017-09-17T06:56:19.364Z,94.79
2017-09-17T06:57:19.360Z,94.6
2017-09-17T06:58:19.353Z,95.08
2017-09-17T06:59:19.548Z,94.79
2017-09-17T07:00:19.655Z,95.36
2017-09-17T07:01:19.336Z,95.27
2017-09-17T07:02:19.331Z,95.27
2017-09-17T07:03:19.636Z,95.46
2017-09-17T07:04:19.318Z,96.22
2017-09-17T07:05:19.622Z,96.22
2017-09-17T07:06:19.509Z,95.94
2017-09-17T07:07:19.299Z,96.12
2017-09-17T07:08:19.608Z,96.12
2017-09-17T07:09:19.600Z,96.12
2017-09-17T07:10:19.694Z,96.22
2017-09-17T07:11:19.685Z,96.22
2017-09-17T07:12:19.268Z,96.12
2017-09-17T07:13:19.262Z,96.27
2017-09-17T07:14:19.568Z,96.08
2017-09-17T07:15:19.249Z,95.51
2017-09-17T07:16:19.653Z,95.61
2017-09-17T07:17:19.557Z,95.32
2017-09-17T07:18:19.544Z,95.61
2017-09-17T07:19:19.224Z,95.41
2017-09-17T07:20:19.319Z,95.61
2017-09-17T07:21:19.526Z,95.61
2017-09-17T07:22:19.620Z,94.65
2017-09-17T07:23:19.203Z,95.03
2017-09-17T07:24:19.509Z,94.93
2017-09-17T07:25:19.500Z,94.74
2017-09-17T07:26:19.498Z,95.12
2017-09-17T07:27:19.490Z,94.32
2017-09-17T07:28:19.169Z,94.17
2017-09-17T07:29:19.477Z,94.56
2017-09-17T07:30:19.476Z,94.17
2017-09-17T07:31:19.151Z,94.27
2017-09-17T07:32:19.145Z,93.6
2017-09-17T07:33:19.240Z,93.79
2017-09-17T07:34:19.447Z,93.51
2017-09-17T07:35:19.440Z,93.88
2017-09-17T07:36:19.437Z,94.08
2017-09-17T07:37:19.430Z,93.88
2017-09-17T07:38:19.421Z,93.98
2017-09-17T07:39:19.103Z,93.98
2017-09-17T07:40:19.408Z,93.88
2017-09-17T07:41:19.407Z,93.65
2017-09-17T07:42:19.400Z,92.98
2017-09-17T07:43:19.392Z,94.12
2017-09-17T07:44:19.074Z,93.93
2017-09-17T07:45:19.168Z,94.22
2017-09-17T07:46:19.374Z,93.65
2017-09-17T07:47:19.057Z,93.17
2017-09-17T07:48:19.398Z,93.27
2017-09-17T07:49:19.487Z,93.36
2017-09-17T07:50:19.358Z,93.17
2017-09-17T07:51:19.033Z,93.27
2017-09-17T07:52:19.027Z,93.27
2017-09-17T07:53:19.332Z,93.17
2017-09-17T07:54:19.014Z,92.6
2017-09-17T07:55:19.472Z,92.5
2017-09-17T07:56:19.001Z,92.5
2017-09-17T07:57:18.997Z,92.41
2017-09-17T07:58:19.300Z,92.22
2017-09-17T07:59:19.084Z,92.5
2017-09-17T08:00:19.390Z,93.27
2017-09-17T08:01:19.284Z,93.03
2017-09-17T08:02:19.281Z,92.88
2017-09-17T08:03:19.269Z,92.98
2017-09-17T08:04:19.269Z,93.6
2017-09-17T08:05:19.258Z,93.17
2017-09-17T08:06:19.255Z,92.12
2017-09-17T08:07:18.935Z,91.88
2017-09-17T08:08:19.245Z,91.88
2017-09-17T08:09:19.238Z,92.08
2017-09-17T08:10:18.919Z,91.88
2017-09-17T08:11:19.226Z,91.79
2017-09-17T08:12:19.220Z,91.88
2017-09-17T08:13:19.213Z,92.08
2017-09-17T08:14:18.902Z,92.27
2017-09-17T08:15:19.203Z,92.08
2017-09-17T08:16:18.883Z,92.32
2017-09-17T08:17:19.191Z,92.12
2017-09-17T08:18:19.187Z,91.36
2017-09-17T08:19:19.178Z,91.46
2017-09-17T08:20:18.857Z,90.98
2017-09-17T08:21:19.168Z,89.83
2017-09-17T08:22:19.166Z,90.03
2017-09-17T08:23:19.150Z,90.12
2017-09-17T08:24:19.148Z,89.45
2017-09-17T08:25:19.140Z,89.54
2017-09-17T08:26:19.138Z,88.88
2017-09-17T08:27:19.128Z,88.59
2017-09-17T08:28:18.813Z,89.26
2017-09-17T08:29:18.806Z,89.21
2017-09-17T08:30:18.799Z,88.92
2017-09-17T08:31:18.795Z,89.02
2017-09-17T08:32:18.788Z,88.59
2017-09-17T08:33:18.782Z,89.54
2017-09-17T08:34:18.774Z,88.92
2017-09-17T08:35:18.771Z,88.92
2017-09-17T08:36:18.764Z,88.73
2017-09-17T08:37:18.757Z,89.54
2017-09-17T08:38:19.166Z,89.17
2017-09-17T08:39:19.067Z,88.92
2017-09-17T08:40:19.056Z,88.92
2017-09-17T08:41:18.737Z,89.12
2017-09-17T08:42:19.043Z,88.92
2017-09-17T08:43:19.137Z,88.92
2017-09-17T08:44:19.033Z,88.83
2017-09-17T08:45:19.125Z,88.83
2017-09-17T08:46:19.020Z,88.07
2017-09-17T08:47:18.706Z,88.73
2017-09-17T08:48:18.696Z,88.83
2017-09-17T08:49:18.686Z,88.45
2017-09-17T08:50:18.993Z,88.54
2017-09-17T08:51:18.993Z,88.26
2017-09-17T08:52:19.081Z,88.16
2017-09-17T08:53:18.977Z,87.68
2017-09-17T08:54:18.973Z,87.3
2017-09-17T08:55:19.115Z,87.11
2017-09-17T08:56:19.059Z,86.92
2017-09-17T08:57:18.641Z,86.92
2017-09-17T08:58:18.949Z,86.54
2017-09-17T08:59:18.943Z,86.68
2017-09-17T09:00:18.623Z,86.01
2017-09-17T09:01:18.619Z,85.63
2017-09-17T09:02:19.025Z,84.86
2017-09-17T09:03:18.919Z,85.44
2017-09-17T09:04:18.601Z,85.72
2017-09-17T09:05:18.909Z,86.2
2017-09-17T09:06:18.900Z,84.96
2017-09-17T09:07:18.895Z,85.25
2017-09-17T09:08:18.893Z,85.39
2017-09-17T09:09:18.884Z,85.39
2017-09-17T09:10:18.565Z,85.3
2017-09-17T09:11:18.872Z,85.77
2017-09-17T09:12:18.966Z,85.39
2017-09-17T09:13:18.862Z,85.77
2017-09-17T09:14:18.541Z,85.58
2017-09-17T09:15:19.003Z,85.49
2017-09-17T09:16:18.534Z,84.53
2017-09-17T09:17:18.841Z,84.92
2017-09-17T09:18:18.838Z,85.01
2017-09-17T09:19:18.828Z,85.01
2017-09-17T09:20:18.509Z,84.92
2017-09-17T09:21:18.505Z,85.11
2017-09-17T09:22:18.496Z,85.01
2017-09-17T09:23:18.491Z,85.34
2017-09-17T09:24:18.901Z,84.44
2017-09-17T09:25:18.790Z,84.44
2017-09-17T09:26:18.475Z,84.39
2017-09-17T09:27:18.467Z,84.58
2017-09-17T09:28:18.460Z,84.58
2017-09-17T09:29:18.765Z,84.96
2017-09-17T09:30:18.863Z,84.77
2017-09-17T09:31:18.758Z,85.53
2017-09-17T09:32:18.438Z,86.16
2017-09-17T09:33:18.745Z,86.25
2017-09-17T09:34:18.937Z,86.54
2017-09-17T09:35:18.740Z,86.25
2017-09-17T09:36:18.516Z,86.25
2017-09-17T09:37:18.722Z,86.44
2017-09-17T09:38:18.716Z,86.82
2017-09-17T09:39:18.498Z,86.92
2017-09-17T09:40:18.391Z,86.82
2017-09-17T09:41:18.701Z,86.35
2017-09-17T09:42:18.691Z,86.54
2017-09-17T09:43:18.690Z,85.34
2017-09-17T09:44:18.368Z,84.86
2017-09-17T09:45:18.675Z,85.34
2017-09-17T09:46:18.667Z,85.34
2017-09-17T09:47:18.669Z,85.44
2017-09-17T09:48:18.760Z,85.82
2017-09-17T09:49:18.340Z,85.25
2017-09-17T09:50:18.645Z,85.63
2017-09-17T09:51:18.638Z,85.63
2017-09-17T09:52:18.323Z,85.53
2017-09-17T09:53:18.632Z,85.25
2017-09-17T09:54:18.723Z,85.05
2017-09-17T09:55:18.306Z,84
2017-09-17T09:56:18.710Z,84.29
2017-09-17T09:57:18.704Z,83.05
2017-09-17T09:58:18.604Z,82.76
2017-09-17T09:59:18.594Z,83.24
2017-09-17T10:00:18.275Z,83.62
2017-09-17T10:01:18.589Z,83.53
2017-09-17T10:02:18.578Z,83.14
2017-09-17T10:03:18.260Z,82.81
2017-09-17T10:04:18.254Z,81.76
2017-09-17T10:05:18.562Z,82.04
2017-09-17T10:06:18.554Z,82.32
2017-09-17T10:07:18.336Z,82.14
2017-09-17T10:08:18.546Z,82.38
2017-09-17T10:09:18.635Z,81.85
2017-09-17T10:10:18.533Z,82.04
2017-09-17T10:11:18.562Z,82.42
2017-09-17T10:12:18.630Z,82.42
2017-09-17T10:13:18.517Z,81.76
2017-09-17T10:14:18.510Z,81.27
2017-09-17T10:15:18.599Z,81.76
2017-09-17T10:16:18.184Z,81.18
2017-09-17T10:17:18.590Z,81.24
2017-09-17T10:18:18.586Z,81.43
2017-09-17T10:19:18.586Z,81.24
2017-09-17T10:20:18.262Z,81.33
2017-09-17T10:21:18.160Z,81.52
2017-09-17T10:22:18.150Z,81.62
2017-09-17T10:23:18.144Z,81.37
2017-09-17T10:24:18.453Z,81.47
2017-09-17T10:25:18.134Z,81.18
2017-09-17T10:26:18.440Z,81.37
2017-09-17T10:27:18.432Z,81.09
2017-09-17T10:28:18.117Z,80.99
2017-09-17T10:29:18.110Z,80.99
2017-09-17T10:30:18.204Z,80.7
2017-09-17T10:31:18.097Z,80.61
2017-09-17T10:32:18.095Z,80.51
2017-09-17T10:33:18.399Z,80.8
2017-09-17T10:34:18.396Z,80.41
2017-09-17T10:35:18.486Z,80.32
2017-09-17T10:36:18.069Z,80.8
2017-09-17T10:37:18.166Z,80.55
2017-09-17T10:38:18.373Z,79.98
2017-09-17T10:39:18.054Z,78.64
2017-09-17T10:40:18.049Z,77.97
2017-09-17T10:41:18.061Z,78.07
2017-09-17T10:42:18.034Z,77.11
2017-09-17T10:43:18.345Z,77.21
2017-09-17T10:44:18.025Z,76.73
2017-09-17T10:45:18.332Z,77.11
2017-09-17T10:46:18.011Z,76.64
2017-09-17T10:47:18.325Z,75.87
2017-09-17T10:48:18.103Z,75.68
2017-09-17T10:49:18.101Z,75.2
2017-09-17T10:50:18.301Z,75.39
2017-09-17T10:51:17.985Z,74.73
2017-09-17T10:52:17.980Z,74.05
2017-09-17T10:53:18.288Z,74.53
2017-09-17T10:54:18.387Z,74.73
2017-09-17T10:55:18.276Z,74.09
2017-09-17T10:56:18.272Z,74.24
2017-09-17T10:57:18.262Z,73.61
2017-09-17T10:58:17.949Z,73.43
2017-09-17T10:59:18.359Z,73.61
2017-09-17T11:00:17.935Z,73.04
2017-09-17T11:01:18.239Z,73.23
2017-09-17T11:02:17.922Z,73.61
2017-09-17T11:03:18.233Z,73.9
2017-09-17T11:04:17.909Z,73.9
2017-09-17T11:05:18.220Z,73.23
2017-09-17T11:06:17.902Z,72.69
2017-09-17T11:07:17.894Z,71.93
2017-09-17T11:08:17.889Z,70.68
2017-09-17T11:09:18.195Z,70.94
2017-09-17T11:10:18.189Z,71.42
2017-09-17T11:11:17.872Z,71.07
2017-09-17T11:12:18.180Z,71.16
2017-09-17T11:13:18.176Z,71.55
2017-09-17T11:14:17.856Z,72.02
2017-09-17T11:15:18.162Z,69.92
2017-09-17T11:16:18.157Z,68.87
2017-09-17T11:17:18.153Z,68.68
2017-09-17T11:18:18.246Z,68.1
2017-09-17T11:19:18.138Z,67.63
2017-09-17T11:20:17.820Z,67.53
2017-09-17T11:21:18.135Z,67.43
2017-09-17T11:22:18.133Z,67.43
2017-09-17T11:23:18.119Z,67.72
2017-09-17T11:24:17.799Z,67.05
2017-09-17T11:25:17.795Z,66.57
2017-09-17T11:26:17.787Z,67.14
2017-09-17T11:27:17.783Z,67.43
2017-09-17T11:28:17.879Z,66.86
2017-09-17T11:29:18.085Z,65.23
2017-09-17T11:30:18.077Z,64.66
2017-09-17T11:31:17.860Z,64.47
2017-09-17T11:32:18.070Z,64.09
2017-09-17T11:33:17.850Z,64.75
2017-09-17T11:34:18.055Z,64.22
2017-09-17T11:35:17.737Z,63.26
2017-09-17T11:36:17.735Z,62.4
2017-09-17T11:37:18.042Z,62.01
2017-09-17T11:38:17.720Z,62.4
2017-09-17T11:39:18.133Z,62.49
2017-09-17T11:40:18.022Z,62.97
2017-09-17T11:41:17.806Z,62.87
2017-09-17T11:42:17.697Z,62.68
2017-09-17T11:43:17.793Z,63.06
2017-09-17T11:44:17.689Z,63.54
2017-09-17T11:45:17.997Z,64.02
2017-09-17T11:46:17.677Z,64.5
2017-09-17T11:47:18.084Z,64.59
2017-09-17T11:48:18.079Z,64.69
2017-09-17T11:49:17.661Z,64.88
2017-09-17T11:50:17.656Z,64.98
2017-09-17T11:51:17.799Z,64.98
2017-09-17T11:52:17.644Z,64.85
2017-09-17T11:53:17.648Z,64.88
2017-09-17T11:54:17.634Z,64.85
2017-09-17T11:55:17.626Z,65.04
2017-09-17T11:56:17.934Z,65.23
2017-09-17T11:57:17.617Z,65.52
2017-09-17T11:58:17.928Z,65.61
2017-09-17T11:59:17.917Z,65.52
2017-09-17T12:00:17.701Z,65.14
2017-09-17T12:01:17.595Z,64.85
2017-09-17T12:02:17.901Z,63.8
2017-09-17T12:03:17.584Z,63.8
2017-09-17T12:04:17.679Z,63.99
2017-09-17T12:05:17.573Z,63.6
2017-09-17T12:06:17.566Z,62.65
2017-09-17T12:07:17.874Z,62.84
2017-09-17T12:08:17.868Z,63.42
2017-09-17T12:09:17.862Z,64.47
2017-09-17T12:10:17.956Z,65.42
2017-09-17T12:11:17.540Z,66.32
2017-09-17T12:12:17.570Z,67.08
2017-09-17T12:13:17.529Z,67.37
2017-09-17T12:14:17.521Z,67.37
2017-09-17T12:15:17.517Z,67.37
2017-09-17T12:16:17.513Z,67.37
2017-09-17T12:17:17.816Z,67.37
2017-09-17T12:18:17.503Z,66.61
2017-09-17T12:19:17.497Z,66.61
2017-09-17T12:20:17.903Z,66.99
2017-09-17T12:21:17.800Z,65.84
2017-09-17T12:22:17.796Z,66.03
2017-09-17T12:23:17.475Z,66.89
2017-09-17T12:24:17.781Z,66.74
2017-09-17T12:25:17.776Z,66.83
2017-09-17T12:26:17.807Z,67.21
2017-09-17T12:27:17.454Z,67.02
2017-09-17T12:28:17.447Z,66.45
2017-09-17T12:29:17.756Z,66.54
2017-09-17T12:30:17.751Z,65.39
2017-09-17T12:31:17.746Z,65.14
2017-09-17T12:32:17.524Z,64.53
2017-09-17T12:33:17.732Z,64.63
2017-09-17T12:34:17.515Z,64.92
2017-09-17T12:35:17.721Z,65.14
2017-09-17T12:36:17.719Z,64.76
2017-09-17T12:37:17.398Z,64.56
2017-09-17T12:38:17.859Z,63.8
2017-09-17T12:39:17.385Z,63.13
2017-09-17T12:40:17.381Z,63.03
2017-09-17T12:41:17.379Z,62.55
2017-09-17T12:42:17.786Z,62.07
2017-09-17T12:43:17.368Z,62.17
2017-09-17T12:44:17.362Z,62.26
2017-09-17T12:45:17.667Z,61.82
2017-09-17T12:46:17.669Z,61.53
2017-09-17T12:47:17.658Z,61.63
2017-09-17T12:48:17.340Z,61.82
2017-09-17T12:49:17.484Z,61.63
2017-09-17T12:50:17.328Z,61.63
2017-09-17T12:51:17.635Z,61.05
2017-09-17T12:52:17.631Z,60.86
2017-09-17T12:53:17.628Z,61.72
2017-09-17T12:54:17.620Z,61.63